createdAt,value
2018-06-05T00:01:45.247Z,17.40
2018-06-05T00:04:13.300Z,17.40
2018-06-05T00:06:41.377Z,17.30
2018-06-05T00:09:09.400Z,17.30
2018-06-05T00:11:37.533Z,17.30
2018-06-05T00:14:05.748Z,17.30
2018-06-05T00:16:33.745Z,17.20
2018-06-05T00:19:01.780Z,17.20
2018-06-05T00:21:29.836Z,17.20
2018-06-05T00:23:57.891Z,17.20
2018-06-05T00:26:25.925Z,17.20
2018-06-05T00:28:53.941Z,17.20
2018-06-05T00:31:21.992Z,17.10
2018-06-05T00:33:50.204Z,17.10
2018-06-05T00:36:18.188Z,17.00
2018-06-05T00:38:46.225Z,17.00
2018-06-05T00:41:14.244Z,17.00
2018-06-05T00:43:42.390Z,16.90
2018-06-05T00:46:10.370Z,16.90
2018-06-05T00:48:38.470Z,16.90
2018-06-05T00:52:14.300Z,16.90
2018-06-05T00:54:42.319Z,16.80
2018-06-05T00:57:10.370Z,16.80
2018-06-05T01:02:06.197Z,16.60
2018-06-05T01:04:34.214Z,16.60
2018-06-05T01:07:02.298Z,16.60
2018-06-05T01:09:30.313Z,16.50
2018-06-05T01:11:58.349Z,16.50
2018-06-05T01:14:26.362Z,16.50
2018-06-05T01:16:54.409Z,16.50
2018-06-05T01:19:22.441Z,16.50
2018-06-05T01:21:50.472Z,16.50
2018-06-05T01:24:18.501Z,16.40
2018-06-05T01:26:46.508Z,16.40
2018-06-05T01:29:14.626Z,16.50
2018-06-05T01:31:42.704Z,16.50
2018-06-05T01:34:10.792Z,16.50
2018-06-05T01:36:38.843Z,16.50
2018-06-05T01:39:07.736Z,16.50
2018-06-05T01:41:35.946Z,16.60
2018-06-05T01:44:04.098Z,16.60
2018-06-05T01:46:32.156Z,16.70
2018-06-05T01:49:00.233Z,16.60
2018-06-05T01:51:28.299Z,16.70
2018-06-05T01:53:56.361Z,16.70
2018-06-05T01:56:24.444Z,16.70
2018-06-05T01:58:52.470Z,16.70
2018-06-05T02:01:20.490Z,16.70
2018-06-05T02:03:48.581Z,16.80
2018-06-05T02:06:16.647Z,16.70
2018-06-05T02:08:44.673Z,16.60
2018-06-05T02:11:12.710Z,16.60
2018-06-05T02:13:40.748Z,16.60
2018-06-05T02:16:08.741Z,16.60
2018-06-05T02:18:36.784Z,16.60
2018-06-05T02:21:04.793Z,16.60
2018-06-05T02:23:32.849Z,16.50
2018-06-05T02:26:00.934Z,16.50
2018-06-05T02:28:28.968Z,16.40
2018-06-05T02:30:57.061Z,16.40
2018-06-05T02:33:25.248Z,16.30
2018-06-05T02:35:53.283Z,16.30
2018-06-05T02:38:21.380Z,16.30
2018-06-05T02:40:52.167Z,16.30
2018-06-05T02:43:20.437Z,16.30
2018-06-05T02:45:48.415Z,16.30
2018-06-05T02:48:16.478Z,16.30
2018-06-05T02:50:44.469Z,16.30
2018-06-05T02:53:12.576Z,16.30
2018-06-05T02:55:40.609Z,16.30
2018-06-05T02:58:08.723Z,16.30
2018-06-05T03:00:36.752Z,16.30
2018-06-05T03:03:04.778Z,16.40
2018-06-05T03:05:32.876Z,16.50
2018-06-05T03:08:00.927Z,16.60
2018-06-05T03:10:28.949Z,16.60
2018-06-05T03:12:56.974Z,16.60
2018-06-05T03:15:25.030Z,16.60
2018-06-05T03:17:53.079Z,16.60
2018-06-05T03:20:21.096Z,16.60
2018-06-05T03:22:49.117Z,16.60
2018-06-05T03:25:17.252Z,16.70
2018-06-05T03:27:45.293Z,16.70
2018-06-05T03:30:13.316Z,16.80
2018-06-05T03:32:41.427Z,16.70
2018-06-05T03:35:09.501Z,16.70
2018-06-05T03:37:37.613Z,16.70
2018-06-05T03:40:05.656Z,16.70
2018-06-05T03:42:33.731Z,16.60
2018-06-05T03:45:01.751Z,16.60
2018-06-05T03:47:29.813Z,16.70
2018-06-05T03:49:57.842Z,16.60
2018-06-05T03:52:25.910Z,16.70
2018-06-05T03:54:53.982Z,16.60
2018-06-05T03:57:22.005Z,16.70
2018-06-05T03:59:50.129Z,16.70
2018-06-05T04:02:18.190Z,16.70
2018-06-05T04:04:46.281Z,16.80
2018-06-05T04:07:14.312Z,16.70
2018-06-05T04:12:10.185Z,16.80
2018-06-05T04:14:38.266Z,16.90
2018-06-05T04:17:06.324Z,16.90
2018-06-05T04:19:34.434Z,16.90
2018-06-05T04:22:02.482Z,16.90
2018-06-05T04:24:30.515Z,16.90
2018-06-05T04:26:58.527Z,17.00
2018-06-05T04:29:30.713Z,17.00
2018-06-05T04:31:58.829Z,17.10
2018-06-05T04:34:26.922Z,17.20
2018-06-05T04:36:55.036Z,17.10
2018-06-05T04:39:23.313Z,17.10
2018-06-05T04:41:51.477Z,17.10
2018-06-05T04:44:19.527Z,17.10
2018-06-05T04:46:47.546Z,17.20
2018-06-05T04:49:15.774Z,17.20
2018-06-05T04:51:44.240Z,17.10
2018-06-05T04:54:12.284Z,17.00
2018-06-05T04:56:40.359Z,17.10
2018-06-05T04:59:08.581Z,17.40
2018-06-05T05:01:36.847Z,17.50
2018-06-05T05:04:07.005Z,17.40
2018-06-05T05:06:44.989Z,17.50
2018-06-05T05:09:17.926Z,17.50
2018-06-05T05:11:50.713Z,17.20
2018-06-05T05:14:24.323Z,17.20
2018-06-05T05:16:56.048Z,17.20
2018-06-05T05:19:30.699Z,17.10
2018-06-05T05:22:06.275Z,17.10
2018-06-05T05:24:41.005Z,17.20
2018-06-05T05:27:13.650Z,17.20
2018-06-05T05:29:42.240Z,17.30
2018-06-05T05:32:11.004Z,17.30
2018-06-05T05:34:39.193Z,17.20
2018-06-05T05:37:07.490Z,17.10
2018-06-05T05:39:35.523Z,17.10
2018-06-05T05:42:03.590Z,17.20
2018-06-05T05:46:59.580Z,17.30
2018-06-05T05:49:27.635Z,17.20
2018-06-05T05:51:55.743Z,17.30
2018-06-05T05:54:23.788Z,17.30
2018-06-05T05:56:51.946Z,17.40
2018-06-05T05:59:20.120Z,17.50
2018-06-05T06:01:48.278Z,17.50
2018-06-05T06:04:16.297Z,17.60
2018-06-05T06:06:44.350Z,17.50
2018-06-05T06:09:12.386Z,17.60
2018-06-05T06:16:36.030Z,17.40
2018-06-05T06:19:04.046Z,17.50
2018-06-05T06:21:32.074Z,17.30
2018-06-05T06:24:00.106Z,17.40
2018-06-05T06:26:28.151Z,17.20
2018-06-05T06:28:56.176Z,17.30
2018-06-05T06:31:24.216Z,17.50
2018-06-05T06:36:20.017Z,17.50
2018-06-05T06:38:48.038Z,17.50
2018-06-05T06:41:16.073Z,17.40
2018-06-05T06:43:44.086Z,17.30
2018-06-05T06:46:12.168Z,17.40
2018-06-05T06:48:40.294Z,17.50
2018-06-05T06:51:08.327Z,17.40
2018-06-05T06:53:36.399Z,17.50
2018-06-05T06:56:04.479Z,17.60
2018-06-05T06:58:32.571Z,17.40
2018-06-05T07:01:00.580Z,17.40
2018-06-05T07:03:28.590Z,17.40
2018-06-05T07:05:56.658Z,17.40
2018-06-05T07:08:24.732Z,17.50
2018-06-05T07:10:52.763Z,17.60
2018-06-05T07:13:20.866Z,17.80
2018-06-05T07:15:48.870Z,17.80
2018-06-05T07:18:16.956Z,18.00
2018-06-05T07:20:44.914Z,17.90
2018-06-05T07:23:12.947Z,18.00
2018-06-05T07:25:41.026Z,18.20
2018-06-05T07:28:09.090Z,18.50
2018-06-05T07:30:37.181Z,18.60
2018-06-05T07:33:05.200Z,18.60
2018-06-05T07:35:33.217Z,18.60
2018-06-05T07:38:01.300Z,18.60
2018-06-05T07:40:29.309Z,18.70
2018-06-05T07:42:57.425Z,18.70
2018-06-05T07:45:25.517Z,18.50
2018-06-05T07:47:53.678Z,18.50
2018-06-05T07:50:21.754Z,18.40
2018-06-05T07:52:49.794Z,18.30
2018-06-05T07:55:17.943Z,18.30
2018-06-05T07:57:46.068Z,18.30
2018-06-05T08:00:14.086Z,18.40
2018-06-05T08:02:42.222Z,18.50
2018-06-05T08:05:10.246Z,18.60
2018-06-05T08:07:38.288Z,18.80
2018-06-05T08:10:06.334Z,18.80
2018-06-05T08:12:34.435Z,18.90
2018-06-05T08:15:02.476Z,19.00
2018-06-05T08:17:30.555Z,19.00
2018-06-05T08:19:58.590Z,19.20
2018-06-05T08:22:31.403Z,19.30
2018-06-05T08:24:59.420Z,19.00
2018-06-05T08:27:27.552Z,18.90
2018-06-05T08:29:55.570Z,18.80
2018-06-05T08:32:23.661Z,19.10
2018-06-05T08:34:51.782Z,19.00
2018-06-05T08:37:19.822Z,19.20
2018-06-05T08:39:47.916Z,19.30
2018-06-05T08:42:15.993Z,19.50
2018-06-05T08:44:43.972Z,19.40
2018-06-05T08:47:12.031Z,19.30
2018-06-05T08:49:40.068Z,19.30
2018-06-05T08:52:08.163Z,19.40
2018-06-05T08:54:36.193Z,19.60
2018-06-05T08:57:04.211Z,19.50
2018-06-05T08:59:32.293Z,19.70
2018-06-05T09:02:00.389Z,19.50
2018-06-05T09:04:28.428Z,19.50
2018-06-05T09:06:56.489Z,19.80
2018-06-05T09:09:24.582Z,19.70
2018-06-05T09:11:52.590Z,19.80
2018-06-05T09:14:20.624Z,19.70
2018-06-05T09:16:48.656Z,19.50
2018-06-05T09:19:16.703Z,19.50
2018-06-05T09:21:44.837Z,19.70
2018-06-05T09:24:12.901Z,19.80
2018-06-05T09:26:40.923Z,19.80
2018-06-05T09:29:08.965Z,20.10
2018-06-05T09:31:37.012Z,20.20
2018-06-05T09:34:05.061Z,20.30
2018-06-05T09:36:33.170Z,19.90
2018-06-05T09:39:01.207Z,19.60
2018-06-05T09:41:29.218Z,19.50
2018-06-05T09:43:57.267Z,19.80
2018-06-05T09:46:25.358Z,20.00
2018-06-05T09:48:53.407Z,19.90
2018-06-05T09:51:21.419Z,20.20
2018-06-05T09:53:49.564Z,20.20
2018-06-05T09:56:17.600Z,20.30
2018-06-05T09:58:45.639Z,20.60
2018-06-05T10:01:13.673Z,20.80
2018-06-05T10:03:41.793Z,20.80
2018-06-05T10:06:09.801Z,21.20
2018-06-05T10:08:38.010Z,21.30
2018-06-05T10:13:40.532Z,20.70
2018-06-05T10:16:08.534Z,20.40
2018-06-05T10:18:36.645Z,20.20
2018-06-05T10:21:04.659Z,20.10
2018-06-05T10:23:32.786Z,20.20
2018-06-05T10:26:00.819Z,20.50
2018-06-05T10:28:28.963Z,20.80
2018-06-05T10:30:57.037Z,20.70
2018-06-05T10:33:25.080Z,20.70
2018-06-05T10:35:53.147Z,21.00
2018-06-05T10:38:21.196Z,20.70
2018-06-05T10:40:49.237Z,20.50
2018-06-05T10:43:17.267Z,20.40
2018-06-05T10:45:45.307Z,20.40
2018-06-05T10:48:13.415Z,20.80
2018-06-05T10:50:41.538Z,20.90
2018-06-05T10:53:09.540Z,21.10
2018-06-05T10:55:37.633Z,21.10
2018-06-05T10:58:05.659Z,21.00
2018-06-05T11:00:33.782Z,21.10
2018-06-05T11:03:01.845Z,21.20
2018-06-05T11:05:29.877Z,21.00
2018-06-05T11:07:58.018Z,20.70
2018-06-05T11:10:26.024Z,21.10
2018-06-05T11:12:54.039Z,21.20
2018-06-05T11:15:22.073Z,21.30
2018-06-05T11:17:50.089Z,21.20
2018-06-05T11:20:18.159Z,21.10
2018-06-05T11:22:46.173Z,20.70
2018-06-05T11:25:14.216Z,21.00
2018-06-05T11:27:42.289Z,21.30
2018-06-05T11:30:10.370Z,21.40
2018-06-05T11:32:38.366Z,22.30
2018-06-05T11:35:06.508Z,22.70
2018-06-05T11:37:34.579Z,22.80
2018-06-05T11:40:02.564Z,22.90
2018-06-05T11:42:30.582Z,23.20
2018-06-05T11:44:58.661Z,23.20
2018-06-05T11:47:26.686Z,23.50
2018-06-05T11:49:54.818Z,23.80
2018-06-05T11:52:22.844Z,24.00
2018-06-05T11:54:50.959Z,24.00
2018-06-05T11:57:19.026Z,24.00
2018-06-05T11:59:47.065Z,23.80
2018-06-05T12:02:15.079Z,23.70
2018-06-05T12:04:43.116Z,24.10
2018-06-05T12:07:11.129Z,24.30
2018-06-05T12:09:39.210Z,25.40
2018-06-05T12:12:07.345Z,27.00
2018-06-05T12:14:35.379Z,29.50
2018-06-05T12:17:03.415Z,30.60
2018-06-05T12:19:31.461Z,30.80
2018-06-05T12:21:59.478Z,29.80
2018-06-05T12:24:27.522Z,28.40
2018-06-05T12:26:55.543Z,27.10
2018-06-05T12:29:23.564Z,27.20
2018-06-05T12:31:51.609Z,26.70
2018-06-05T12:34:19.719Z,25.50
2018-06-05T12:36:47.721Z,25.00
2018-06-05T12:39:15.776Z,25.40
2018-06-05T12:41:43.809Z,26.50
2018-06-05T12:44:11.885Z,27.00
2018-06-05T12:46:39.916Z,27.90
2018-06-05T12:49:07.972Z,27.70
2018-06-05T12:51:36.009Z,28.20
2018-06-05T12:54:04.054Z,29.60
2018-06-05T12:56:32.242Z,32.60
2018-06-05T12:59:00.318Z,33.80
2018-06-05T13:01:28.370Z,34.50
2018-06-05T13:03:56.461Z,33.30
2018-06-05T13:06:24.505Z,31.30
2018-06-05T13:08:52.633Z,30.40
2018-06-05T13:11:20.704Z,29.90
2018-06-05T13:13:48.730Z,30.70
2018-06-05T13:16:16.758Z,33.30
2018-06-05T13:18:44.788Z,33.70
2018-06-05T13:21:12.871Z,35.30
2018-06-05T13:23:40.930Z,36.00
2018-06-05T13:26:08.957Z,34.70
2018-06-05T13:28:37.089Z,32.60
2018-06-05T13:31:05.333Z,31.70
2018-06-05T13:33:33.350Z,30.50
2018-06-05T13:36:01.395Z,30.30
2018-06-05T13:38:29.449Z,28.90
2018-06-05T13:40:57.563Z,28.70
2018-06-05T13:43:25.579Z,27.80
2018-06-05T13:45:53.701Z,27.40
2018-06-05T13:48:21.749Z,27.20
2018-06-05T13:50:49.929Z,27.50
2018-06-05T13:53:17.973Z,27.80
2018-06-05T13:55:46.094Z,30.40
2018-06-05T13:58:14.106Z,30.30
2018-06-05T14:00:42.210Z,28.80
2018-06-05T14:03:10.230Z,27.60
2018-06-05T14:05:38.359Z,27.10
2018-06-05T14:08:06.454Z,26.20
2018-06-05T14:10:34.537Z,26.30
2018-06-05T14:13:02.597Z,26.10
2018-06-05T14:15:30.648Z,26.10
2018-06-05T14:17:58.693Z,25.90
2018-06-05T14:20:26.741Z,25.90
2018-06-05T14:22:54.857Z,25.60
2018-06-05T14:25:22.934Z,25.60
2018-06-05T14:27:50.976Z,24.90
2018-06-05T14:30:18.996Z,24.60
2018-06-05T14:32:47.092Z,24.90
2018-06-05T14:35:15.121Z,25.10
2018-06-05T14:37:43.142Z,25.40
2018-06-05T14:42:38.994Z,27.60
2018-06-05T14:45:07.195Z,29.60
2018-06-05T14:47:35.302Z,30.60
2018-06-05T14:50:03.317Z,31.70
2018-06-05T14:52:31.371Z,31.80
2018-06-05T14:54:59.523Z,32.30
2018-06-05T14:57:27.592Z,32.00
2018-06-05T14:59:55.612Z,32.30
2018-06-05T15:02:23.730Z,30.60
2018-06-05T15:04:51.771Z,31.10
2018-06-05T15:07:19.788Z,32.50
2018-06-05T15:09:47.854Z,32.20
2018-06-05T15:12:15.917Z,33.10
2018-06-05T15:14:43.941Z,32.30
2018-06-05T15:17:12.007Z,32.20
2018-06-05T15:19:40.144Z,32.50
2018-06-05T15:22:08.180Z,32.60
2018-06-05T15:24:36.257Z,32.90
2018-06-05T15:27:04.330Z,33.00
2018-06-05T15:29:32.402Z,33.40
2018-06-05T15:32:00.503Z,33.40
2018-06-05T15:34:28.575Z,33.10
2018-06-05T15:36:56.622Z,31.50
2018-06-05T15:39:24.646Z,32.20
2018-06-05T15:41:52.682Z,32.60
2018-06-05T15:44:20.733Z,32.70
2018-06-05T15:46:48.763Z,33.00
2018-06-05T15:49:16.806Z,32.80
2018-06-05T15:51:44.847Z,32.70
2018-06-05T15:54:12.958Z,31.50
2018-06-05T15:56:41.024Z,31.70
2018-06-05T15:59:09.063Z,30.80
2018-06-05T16:01:37.140Z,30.50
2018-06-05T16:04:05.162Z,29.60
2018-06-05T16:06:33.268Z,29.90
2018-06-05T16:09:01.358Z,30.60
2018-06-05T16:11:29.434Z,31.40
2018-06-05T16:13:57.499Z,31.50
2018-06-05T16:16:25.566Z,31.40
2018-06-05T16:18:53.634Z,31.20
2018-06-05T16:21:21.722Z,31.60
2018-06-05T16:23:49.788Z,31.20
2018-06-05T16:26:17.909Z,30.40
2018-06-05T16:28:45.893Z,30.10
2018-06-05T16:31:13.916Z,29.40
2018-06-05T16:33:41.950Z,28.90
2018-06-05T16:36:10.015Z,29.20
2018-06-05T16:38:38.149Z,29.80
2018-06-05T16:41:06.142Z,30.10
2018-06-05T16:43:34.187Z,29.80
2018-06-05T16:46:02.242Z,29.60
2018-06-05T16:48:30.290Z,29.10
2018-06-05T16:50:58.350Z,27.90
2018-06-05T16:53:26.419Z,27.20
2018-06-05T16:55:54.469Z,26.80
2018-06-05T16:58:22.508Z,26.40
2018-06-05T17:00:50.555Z,26.10
2018-06-05T17:03:18.621Z,26.10
2018-06-05T17:05:46.713Z,26.00
2018-06-05T17:08:15.053Z,26.30
2018-06-05T17:10:43.076Z,27.10
2018-06-05T17:13:11.149Z,27.60
2018-06-05T17:15:39.178Z,28.10
2018-06-05T17:18:07.729Z,28.70
2018-06-05T17:20:35.778Z,28.90
2018-06-05T17:23:04.208Z,29.10
2018-06-05T17:25:32.250Z,29.30
2018-06-05T17:28:00.347Z,29.50
2018-06-05T17:30:28.691Z,29.00
2018-06-05T17:32:56.777Z,29.50
2018-06-05T17:35:24.825Z,28.40
2018-06-05T17:37:52.931Z,27.60
2018-06-05T17:40:21.111Z,27.30
2018-06-05T17:42:49.122Z,26.90
2018-06-05T17:45:17.222Z,26.40
2018-06-05T17:47:45.247Z,25.90
2018-06-05T17:50:13.242Z,25.60
2018-06-05T17:52:41.310Z,25.20
2018-06-05T17:55:09.341Z,25.00
2018-06-05T17:57:37.462Z,24.90
2018-06-05T18:00:05.531Z,24.80
2018-06-05T18:02:33.590Z,25.20
2018-06-05T18:05:02.153Z,25.60
2018-06-05T18:07:30.150Z,25.80
2018-06-05T18:09:58.246Z,26.30
2018-06-05T18:12:26.291Z,26.90
2018-06-05T18:14:54.374Z,27.00
2018-06-05T18:17:22.442Z,27.60
2018-06-05T18:19:50.565Z,27.70
2018-06-05T18:22:18.569Z,27.70
2018-06-05T18:24:46.687Z,27.60
2018-06-05T18:27:14.721Z,27.60
2018-06-05T18:29:42.804Z,27.40
2018-06-05T18:32:10.839Z,27.50
2018-06-05T18:34:38.957Z,27.30
2018-06-05T18:37:07.061Z,27.10
2018-06-05T18:39:35.016Z,26.50
2018-06-05T18:42:03.053Z,26.00
2018-06-05T18:44:31.143Z,25.60
2018-06-05T18:46:59.192Z,25.30
2018-06-05T18:49:27.219Z,25.20
2018-06-05T18:51:55.236Z,24.80
2018-06-05T18:54:23.283Z,24.40
2018-06-05T18:56:51.309Z,24.10
2018-06-05T18:59:19.349Z,23.70
2018-06-05T19:01:47.378Z,23.70
2018-06-05T19:04:15.504Z,23.60
2018-06-05T19:06:43.615Z,23.10
2018-06-05T19:09:11.670Z,22.80
2018-06-05T19:11:39.641Z,22.70
2018-06-05T19:14:07.703Z,22.60
2018-06-05T19:16:35.762Z,22.20
2018-06-05T19:19:03.781Z,22.00
2018-06-05T19:21:31.917Z,21.80
2018-06-05T19:23:59.997Z,21.60
2018-06-05T19:26:28.028Z,21.30
2018-06-05T19:28:56.075Z,20.90
2018-06-05T19:31:24.142Z,20.70
2018-06-05T19:33:52.180Z,20.60
2018-06-05T19:36:20.257Z,20.40
2018-06-05T19:38:48.364Z,20.30
2018-06-05T19:41:16.361Z,20.10
2018-06-05T19:43:45.291Z,20.00
2018-06-05T19:46:13.331Z,19.80
2018-06-05T19:51:09.190Z,19.60
2018-06-05T19:53:37.218Z,19.40
2018-06-05T19:56:05.274Z,19.40
2018-06-05T19:58:33.314Z,19.30
2018-06-05T20:01:01.366Z,19.20
2018-06-05T20:03:29.414Z,19.10
2018-06-05T20:05:57.458Z,19.00
2018-06-05T20:08:25.514Z,18.90
2018-06-05T20:10:53.582Z,18.80
2018-06-05T20:13:21.601Z,18.70
2018-06-05T20:15:49.674Z,18.50
2018-06-05T20:18:17.774Z,18.50
2018-06-05T20:20:45.928Z,18.40
2018-06-05T20:23:14.636Z,18.30
2018-06-05T20:25:42.690Z,18.30
2018-06-05T20:28:10.699Z,18.20
2018-06-05T20:30:38.755Z,18.20
2018-06-05T20:33:06.821Z,18.20
2018-06-05T20:35:34.901Z,18.10
2018-06-05T20:38:02.945Z,18.10
2018-06-05T20:40:31.039Z,18.00
2018-06-05T20:42:59.071Z,18.00
2018-06-05T20:45:27.125Z,18.00
2018-06-05T20:47:55.156Z,17.90
2018-06-05T20:50:23.231Z,17.80
2018-06-05T20:52:51.361Z,17.80
2018-06-05T20:55:19.396Z,17.70
2018-06-05T20:57:47.408Z,17.60
2018-06-05T21:00:15.454Z,17.50
2018-06-05T21:02:43.499Z,17.50
2018-06-05T21:05:11.565Z,17.40
2018-06-05T21:07:39.644Z,17.30
2018-06-05T21:10:07.713Z,17.30
2018-06-05T21:12:35.802Z,17.20
2018-06-05T21:15:04.301Z,17.10
2018-06-05T21:17:32.285Z,17.10
2018-06-05T21:20:00.308Z,17.10
2018-06-05T21:22:28.339Z,17.10
2018-06-05T21:24:56.366Z,17.00
2018-06-05T21:27:24.421Z,16.90
2018-06-05T21:29:52.502Z,16.90
2018-06-05T21:32:20.603Z,16.80
2018-06-05T21:34:48.631Z,16.70
2018-06-05T21:37:16.727Z,16.60
2018-06-05T21:39:44.780Z,16.60
2018-06-05T21:42:12.814Z,16.50
2018-06-05T21:44:40.835Z,16.50
2018-06-05T21:47:08.896Z,16.40
2018-06-05T21:49:36.913Z,16.40
2018-06-05T21:52:05.163Z,16.30
2018-06-05T21:54:33.207Z,16.30
2018-06-05T21:57:01.610Z,16.20
2018-06-05T21:59:29.648Z,16.10
2018-06-05T22:01:57.697Z,16.10
2018-06-05T22:04:25.750Z,16.00
2018-06-05T22:06:53.790Z,15.90
2018-06-05T22:09:21.827Z,15.90
2018-06-05T22:11:49.937Z,15.80
2018-06-05T22:14:17.964Z,15.70
2018-06-05T22:16:46.007Z,15.70
2018-06-05T22:19:14.016Z,15.70
2018-06-05T22:21:42.046Z,15.70
2018-06-05T22:24:10.192Z,15.60
2018-06-05T22:26:38.228Z,15.60
2018-06-05T22:29:06.268Z,15.60
2018-06-05T22:31:34.344Z,15.50
2018-06-05T22:34:02.341Z,15.40
2018-06-05T22:36:30.472Z,15.40
2018-06-05T22:38:58.525Z,15.40
2018-06-05T22:41:26.616Z,15.30
2018-06-05T22:43:54.662Z,15.20
2018-06-05T22:46:22.721Z,15.20
2018-06-05T22:48:50.742Z,15.20
2018-06-05T22:51:18.791Z,15.20
2018-06-05T22:53:46.840Z,15.10
2018-06-05T22:56:14.960Z,15.10
2018-06-05T22:58:43.075Z,15.10
2018-06-05T23:01:11.047Z,15.10
2018-06-05T23:03:39.161Z,15.00
2018-06-05T23:06:07.197Z,15.00
2018-06-05T23:11:03.051Z,14.90
2018-06-05T23:13:31.130Z,14.90
2018-06-05T23:15:59.238Z,14.90
2018-06-05T23:18:27.305Z,14.80
2018-06-05T23:20:55.298Z,14.80
2018-06-05T23:23:23.329Z,14.80
2018-06-05T23:25:51.347Z,14.70
2018-06-05T23:28:19.373Z,14.80
2018-06-05T23:30:47.417Z,14.70
2018-06-05T23:33:15.517Z,14.70
2018-06-05T23:35:43.557Z,14.70
2018-06-05T23:38:11.646Z,14.70
2018-06-05T23:40:39.837Z,14.60
2018-06-05T23:43:07.895Z,14.70
2018-06-05T23:45:35.971Z,14.60
2018-06-05T23:48:04.037Z,14.60
2018-06-05T23:50:32.070Z,14.60
2018-06-05T23:53:00.113Z,14.60
2018-06-05T23:55:28.136Z,14.60
2018-06-05T23:57:56.152Z,14.60
